sensor_id;sensor_type;location;lat;lon;timestamp;P1;durP1;ratioP1;P2;durP2;ratioP2
9898;SDS011;4988;49.238;6.698;2024-01-30T00:00:29;31.77;;;15.87;;
9898;SDS011;4988;49.238;6.698;2024-01-30T00:02:54;31.00;;;14.53;;
9898;SDS011;4988;49.238;6.698;2024-01-30T00:05:19;27.50;;;14.83;;
9898;SDS011;4988;49.238;6.698;2024-01-30T00:07:45;28.47;;;15.07;;
9898;SDS011;4988;49.238;6.698;2024-01-30T00:10:10;30.73;;;15.93;;
9898;SDS011;4988;49.238;6.698;2024-01-30T00:12:35;30.80;;;16.13;;
9898;SDS011;4988;49.238;6.698;2024-01-30T00:15:00;34.60;;;16.53;;
9898;SDS011;4988;49.238;6.698;2024-01-30T00:17:26;35.63;;;16.47;;
9898;SDS011;4988;49.238;6.698;2024-01-30T00:19:51;30.33;;;15.93;;
9898;SDS011;4988;49.238;6.698;2024-01-30T00:22:17;34.83;;;15.63;;
9898;SDS011;4988;49.238;6.698;2024-01-30T00:24:42;35.07;;;16.17;;
9898;SDS011;4988;49.238;6.698;2024-01-30T00:27:08;31.40;;;15.90;;
9898;SDS011;4988;49.238;6.698;2024-01-30T00:29:33;32.40;;;16.50;;
9898;SDS011;4988;49.238;6.698;2024-01-30T00:31:59;32.37;;;15.50;;
9898;SDS011;4988;49.238;6.698;2024-01-30T00:34:25;34.27;;;15.80;;
9898;SDS011;4988;49.238;6.698;2024-01-30T00:36:50;38.83;;;17.87;;
9898;SDS011;4988;49.238;6.698;2024-01-30T00:39:15;111.80;;;36.13;;
9898;SDS011;4988;49.238;6.698;2024-01-30T00:41:41;126.27;;;41.63;;
9898;SDS011;4988;49.238;6.698;2024-01-30T00:44:06;149.23;;;44.70;;
9898;SDS011;4988;49.238;6.698;2024-01-30T00:46:31;153.00;;;45.97;;
9898;SDS011;4988;49.238;6.698;2024-01-30T00:48:57;120.30;;;40.13;;
9898;SDS011;4988;49.238;6.698;2024-01-30T00:51:22;78.03;;;30.60;;
9898;SDS011;4988;49.238;6.698;2024-01-30T00:53:47;75.77;;;27.97;;
9898;SDS011;4988;49.238;6.698;2024-01-30T00:56:13;59.37;;;23.83;;
9898;SDS011;4988;49.238;6.698;2024-01-30T00:58:38;53.57;;;22.17;;
9898;SDS011;4988;49.238;6.698;2024-01-30T01:01:04;52.20;;;21.93;;
9898;SDS011;4988;49.238;6.698;2024-01-30T01:03:29;40.77;;;18.93;;
9898;SDS011;4988;49.238;6.698;2024-01-30T01:05:55;47.73;;;20.73;;
9898;SDS011;4988;49.238;6.698;2024-01-30T01:08:20;51.00;;;21.53;;
9898;SDS011;4988;49.238;6.698;2024-01-30T01:10:45;51.40;;;20.60;;
9898;SDS011;4988;49.238;6.698;2024-01-30T01:13:10;46.33;;;20.40;;
9898;SDS011;4988;49.238;6.698;2024-01-30T01:15:36;43.23;;;18.07;;
9898;SDS011;4988;49.238;6.698;2024-01-30T01:18:02;36.23;;;16.93;;
9898;SDS011;4988;49.238;6.698;2024-01-30T01:20:27;31.37;;;15.47;;
9898;SDS011;4988;49.238;6.698;2024-01-30T01:22:53;30.43;;;14.97;;
9898;SDS011;4988;49.238;6.698;2024-01-30T01:25:19;28.37;;;15.00;;
9898;SDS011;4988;49.238;6.698;2024-01-30T01:27:44;27.00;;;13.67;;
9898;SDS011;4988;49.238;6.698;2024-01-30T01:30:16;27.30;;;13.30;;
9898;SDS011;4988;49.238;6.698;2024-01-30T01:32:46;26.77;;;13.53;;
9898;SDS011;4988;49.238;6.698;2024-01-30T01:35:19;28.57;;;14.43;;
9898;SDS011;4988;49.238;6.698;2024-01-30T01:37:45;29.97;;;14.83;;
9898;SDS011;4988;49.238;6.698;2024-01-30T01:40:10;27.63;;;13.90;;
9898;SDS011;4988;49.238;6.698;2024-01-30T01:42:35;26.73;;;14.13;;
9898;SDS011;4988;49.238;6.698;2024-01-30T01:45:01;27.00;;;14.00;;
9898;SDS011;4988;49.238;6.698;2024-01-30T01:47:26;28.83;;;14.50;;
9898;SDS011;4988;49.238;6.698;2024-01-30T01:49:51;29.50;;;14.70;;
9898;SDS011;4988;49.238;6.698;2024-01-30T01:52:17;28.43;;;14.80;;
9898;SDS011;4988;49.238;6.698;2024-01-30T01:54:42;32.40;;;14.63;;
9898;SDS011;4988;49.238;6.698;2024-01-30T01:57:08;31.10;;;15.07;;
9898;SDS011;4988;49.238;6.698;2024-01-30T01:59:33;28.17;;;15.43;;
9898;SDS011;4988;49.238;6.698;2024-01-30T02:01:59;28.00;;;14.53;;
9898;SDS011;4988;49.238;6.698;2024-01-30T02:04:27;28.33;;;13.73;;
9898;SDS011;4988;49.238;6.698;2024-01-30T02:06:52;29.37;;;14.77;;
9898;SDS011;4988;49.238;6.698;2024-01-30T02:09:17;32.17;;;14.03;;
9898;SDS011;4988;49.238;6.698;2024-01-30T02:11:43;26.00;;;12.97;;
9898;SDS011;4988;49.238;6.698;2024-01-30T02:14:09;30.17;;;14.57;;
9898;SDS011;4988;49.238;6.698;2024-01-30T02:16:34;29.27;;;14.37;;
9898;SDS011;4988;49.238;6.698;2024-01-30T02:18:59;36.70;;;13.87;;
9898;SDS011;4988;49.238;6.698;2024-01-30T02:21:25;43.70;;;15.40;;
9898;SDS011;4988;49.238;6.698;2024-01-30T02:23:50;43.53;;;14.93;;
9898;SDS011;4988;49.238;6.698;2024-01-30T02:26:17;47.87;;;15.00;;
9898;SDS011;4988;49.238;6.698;2024-01-30T02:28:43;45.67;;;15.03;;
9898;SDS011;4988;49.238;6.698;2024-01-30T02:31:08;36.17;;;14.47;;
9898;SDS011;4988;49.238;6.698;2024-01-30T02:33:33;37.37;;;14.40;;
9898;SDS011;4988;49.238;6.698;2024-01-30T02:35:59;44.63;;;16.07;;
9898;SDS011;4988;49.238;6.698;2024-01-30T02:38:24;41.23;;;15.90;;
9898;SDS011;4988;49.238;6.698;2024-01-30T02:40:51;47.70;;;16.20;;
9898;SDS011;4988;49.238;6.698;2024-01-30T02:43:17;32.30;;;14.77;;
9898;SDS011;4988;49.238;6.698;2024-01-30T02:45:42;42.67;;;15.33;;
9898;SDS011;4988;49.238;6.698;2024-01-30T02:48:07;42.30;;;15.40;;
9898;SDS011;4988;49.238;6.698;2024-01-30T02:50:33;42.77;;;15.73;;
9898;SDS011;4988;49.238;6.698;2024-01-30T02:52:58;39.83;;;15.97;;
9898;SDS011;4988;49.238;6.698;2024-01-30T02:55:24;44.17;;;16.17;;
9898;SDS011;4988;49.238;6.698;2024-01-30T02:57:49;43.93;;;16.53;;
9898;SDS011;4988;49.238;6.698;2024-01-30T03:00:14;39.40;;;16.20;;
9898;SDS011;4988;49.238;6.698;2024-01-30T03:02:40;51.87;;;18.17;;
9898;SDS011;4988;49.238;6.698;2024-01-30T03:05:05;51.93;;;17.50;;
9898;SDS011;4988;49.238;6.698;2024-01-30T03:07:31;57.13;;;17.50;;
9898;SDS011;4988;49.238;6.698;2024-01-30T03:09:56;59.47;;;17.87;;
9898;SDS011;4988;49.238;6.698;2024-01-30T03:12:22;44.63;;;16.77;;
9898;SDS011;4988;49.238;6.698;2024-01-30T03:14:47;65.00;;;17.40;;
9898;SDS011;4988;49.238;6.698;2024-01-30T03:17:13;56.20;;;16.40;;
9898;SDS011;4988;49.238;6.698;2024-01-30T03:19:38;51.87;;;15.23;;
9898;SDS011;4988;49.238;6.698;2024-01-30T03:22:03;44.07;;;15.60;;
9898;SDS011;4988;49.238;6.698;2024-01-30T03:24:29;50.87;;;15.30;;
9898;SDS011;4988;49.238;6.698;2024-01-30T03:26:54;34.70;;;14.63;;
9898;SDS011;4988;49.238;6.698;2024-01-30T03:29:19;38.67;;;15.00;;
9898;SDS011;4988;49.238;6.698;2024-01-30T03:31:45;43.53;;;15.10;;
9898;SDS011;4988;49.238;6.698;2024-01-30T03:34:10;41.67;;;14.47;;
9898;SDS011;4988;49.238;6.698;2024-01-30T03:36:35;39.43;;;15.60;;
9898;SDS011;4988;49.238;6.698;2024-01-30T03:39:01;41.87;;;15.00;;
9898;SDS011;4988;49.238;6.698;2024-01-30T03:41:26;42.33;;;15.87;;
9898;SDS011;4988;49.238;6.698;2024-01-30T03:43:51;38.00;;;15.87;;
9898;SDS011;4988;49.238;6.698;2024-01-30T03:46:17;45.40;;;15.90;;
9898;SDS011;4988;49.238;6.698;2024-01-30T03:48:42;47.30;;;16.23;;
9898;SDS011;4988;49.238;6.698;2024-01-30T03:51:08;48.37;;;17.27;;
9898;SDS011;4988;49.238;6.698;2024-01-30T03:53:34;41.43;;;15.50;;
9898;SDS011;4988;49.238;6.698;2024-01-30T03:56:00;51.53;;;16.73;;
9898;SDS011;4988;49.238;6.698;2024-01-30T03:58:25;46.57;;;15.73;;
9898;SDS011;4988;49.238;6.698;2024-01-30T04:00:51;41.37;;;16.20;;
9898;SDS011;4988;49.238;6.698;2024-01-30T04:03:16;51.83;;;17.00;;
9898;SDS011;4988;49.238;6.698;2024-01-30T04:05:42;45.87;;;16.30;;
9898;SDS011;4988;49.238;6.698;2024-01-30T04:08:07;47.57;;;16.40;;
9898;SDS011;4988;49.238;6.698;2024-01-30T04:10:33;35.37;;;15.90;;
9898;SDS011;4988;49.238;6.698;2024-01-30T04:12:58;47.40;;;16.33;;
9898;SDS011;4988;49.238;6.698;2024-01-30T04:15:24;48.43;;;16.53;;
9898;SDS011;4988;49.238;6.698;2024-01-30T04:17:50;54.03;;;17.83;;
9898;SDS011;4988;49.238;6.698;2024-01-30T04:20:15;54.03;;;17.80;;
9898;SDS011;4988;49.238;6.698;2024-01-30T04:22:43;91.27;;;17.70;;
9898;SDS011;4988;49.238;6.698;2024-01-30T04:25:10;73.80;;;17.87;;
9898;SDS011;4988;49.238;6.698;2024-01-30T04:27:35;60.63;;;18.40;;
9898;SDS011;4988;49.238;6.698;2024-01-30T04:30:00;84.40;;;19.23;;
9898;SDS011;4988;49.238;6.698;2024-01-30T04:32:26;80.13;;;18.20;;
9898;SDS011;4988;49.238;6.698;2024-01-30T04:34:51;78.63;;;18.90;;
9898;SDS011;4988;49.238;6.698;2024-01-30T04:37:16;97.37;;;20.37;;
9898;SDS011;4988;49.238;6.698;2024-01-30T04:39:41;58.30;;;18.77;;
9898;SDS011;4988;49.238;6.698;2024-01-30T04:42:07;47.47;;;19.43;;
9898;SDS011;4988;49.238;6.698;2024-01-30T04:44:32;41.07;;;16.63;;
9898;SDS011;4988;49.238;6.698;2024-01-30T04:46:57;69.63;;;20.33;;
9898;SDS011;4988;49.238;6.698;2024-01-30T04:49:26;56.00;;;19.83;;
9898;SDS011;4988;49.238;6.698;2024-01-30T04:51:51;52.33;;;19.93;;
9898;SDS011;4988;49.238;6.698;2024-01-30T04:54:16;57.57;;;20.67;;
9898;SDS011;4988;49.238;6.698;2024-01-30T04:56:42;50.37;;;19.07;;
9898;SDS011;4988;49.238;6.698;2024-01-30T04:59:07;53.10;;;19.23;;
9898;SDS011;4988;49.238;6.698;2024-01-30T05:01:33;55.90;;;19.57;;
9898;SDS011;4988;49.238;6.698;2024-01-30T05:03:58;47.23;;;18.70;;
9898;SDS011;4988;49.238;6.698;2024-01-30T05:06:24;47.17;;;17.87;;
9898;SDS011;4988;49.238;6.698;2024-01-30T05:08:50;57.10;;;18.63;;
9898;SDS011;4988;49.238;6.698;2024-01-30T05:11:16;49.40;;;18.70;;
9898;SDS011;4988;49.238;6.698;2024-01-30T05:13:41;46.93;;;18.43;;
9898;SDS011;4988;49.238;6.698;2024-01-30T05:16:06;55.97;;;19.50;;
9898;SDS011;4988;49.238;6.698;2024-01-30T05:18:32;49.50;;;19.77;;
9898;SDS011;4988;49.238;6.698;2024-01-30T05:20:57;51.43;;;19.70;;
9898;SDS011;4988;49.238;6.698;2024-01-30T05:23:23;41.80;;;17.80;;
9898;SDS011;4988;49.238;6.698;2024-01-30T05:25:48;49.03;;;20.30;;
9898;SDS011;4988;49.238;6.698;2024-01-30T05:28:13;51.43;;;20.63;;
9898;SDS011;4988;49.238;6.698;2024-01-30T05:30:39;53.17;;;21.07;;
9898;SDS011;4988;49.238;6.698;2024-01-30T05:33:04;46.77;;;19.53;;
9898;SDS011;4988;49.238;6.698;2024-01-30T05:35:29;47.37;;;19.27;;
9898;SDS011;4988;49.238;6.698;2024-01-30T05:37:55;43.10;;;18.97;;
9898;SDS011;4988;49.238;6.698;2024-01-30T05:40:20;41.77;;;17.70;;
9898;SDS011;4988;49.238;6.698;2024-01-30T05:42:45;44.10;;;18.50;;
9898;SDS011;4988;49.238;6.698;2024-01-30T05:45:11;45.53;;;19.87;;
9898;SDS011;4988;49.238;6.698;2024-01-30T05:47:36;42.97;;;19.00;;
9898;SDS011;4988;49.238;6.698;2024-01-30T05:50:01;42.63;;;18.60;;
9898;SDS011;4988;49.238;6.698;2024-01-30T05:52:27;48.77;;;19.80;;
9898;SDS011;4988;49.238;6.698;2024-01-30T05:54:52;41.33;;;18.00;;
9898;SDS011;4988;49.238;6.698;2024-01-30T05:57:17;47.70;;;19.77;;
9898;SDS011;4988;49.238;6.698;2024-01-30T05:59:43;49.47;;;20.10;;
9898;SDS011;4988;49.238;6.698;2024-01-30T06:02:12;55.53;;;20.63;;
9898;SDS011;4988;49.238;6.698;2024-01-30T06:04:38;47.30;;;19.70;;
9898;SDS011;4988;49.238;6.698;2024-01-30T06:07:03;59.17;;;22.23;;
9898;SDS011;4988;49.238;6.698;2024-01-30T06:09:31;58.50;;;23.07;;
9898;SDS011;4988;49.238;6.698;2024-01-30T06:11:56;61.40;;;23.13;;
9898;SDS011;4988;49.238;6.698;2024-01-30T06:14:21;51.67;;;21.13;;
9898;SDS011;4988;49.238;6.698;2024-01-30T06:16:47;57.17;;;22.20;;
9898;SDS011;4988;49.238;6.698;2024-01-30T06:19:12;66.07;;;23.37;;
9898;SDS011;4988;49.238;6.698;2024-01-30T06:21:37;58.67;;;22.30;;
9898;SDS011;4988;49.238;6.698;2024-01-30T06:24:03;51.10;;;20.77;;
9898;SDS011;4988;49.238;6.698;2024-01-30T06:26:29;53.67;;;19.57;;
9898;SDS011;4988;49.238;6.698;2024-01-30T06:28:54;52.37;;;19.37;;
9898;SDS011;4988;49.238;6.698;2024-01-30T06:31:19;56.13;;;21.13;;
9898;SDS011;4988;49.238;6.698;2024-01-30T06:33:48;52.50;;;18.93;;
9898;SDS011;4988;49.238;6.698;2024-01-30T06:36:13;49.23;;;18.40;;
9898;SDS011;4988;49.238;6.698;2024-01-30T06:38:39;52.83;;;18.73;;
9898;SDS011;4988;49.238;6.698;2024-01-30T06:41:05;55.97;;;20.03;;
9898;SDS011;4988;49.238;6.698;2024-01-30T06:43:31;48.60;;;19.93;;
9898;SDS011;4988;49.238;6.698;2024-01-30T06:45:56;58.47;;;20.47;;
9898;SDS011;4988;49.238;6.698;2024-01-30T06:48:21;54.67;;;20.10;;
9898;SDS011;4988;49.238;6.698;2024-01-30T06:50:47;42.30;;;18.27;;
9898;SDS011;4988;49.238;6.698;2024-01-30T06:53:13;48.10;;;20.30;;
9898;SDS011;4988;49.238;6.698;2024-01-30T06:55:38;47.57;;;18.63;;
9898;SDS011;4988;49.238;6.698;2024-01-30T06:58:03;47.00;;;18.00;;
9898;SDS011;4988;49.238;6.698;2024-01-30T07:00:28;49.53;;;19.87;;
9898;SDS011;4988;49.238;6.698;2024-01-30T07:02:54;50.10;;;20.20;;
9898;SDS011;4988;49.238;6.698;2024-01-30T07:05:19;51.67;;;20.17;;
9898;SDS011;4988;49.238;6.698;2024-01-30T07:07:46;45.47;;;19.10;;
9898;SDS011;4988;49.238;6.698;2024-01-30T07:10:12;43.83;;;19.33;;
9898;SDS011;4988;49.238;6.698;2024-01-30T07:12:37;46.43;;;18.80;;
9898;SDS011;4988;49.238;6.698;2024-01-30T07:15:02;82.10;;;25.47;;
9898;SDS011;4988;49.238;6.698;2024-01-30T07:17:28;71.13;;;25.83;;
9898;SDS011;4988;49.238;6.698;2024-01-30T07:19:54;60.67;;;22.97;;
9898;SDS011;4988;49.238;6.698;2024-01-30T07:22:19;54.70;;;20.47;;
9898;SDS011;4988;49.238;6.698;2024-01-30T07:24:44;52.90;;;21.00;;
9898;SDS011;4988;49.238;6.698;2024-01-30T07:27:12;69.17;;;25.10;;
9898;SDS011;4988;49.238;6.698;2024-01-30T07:29:38;55.87;;;21.60;;
9898;SDS011;4988;49.238;6.698;2024-01-30T07:32:03;50.63;;;20.87;;
9898;SDS011;4988;49.238;6.698;2024-01-30T07:34:29;44.67;;;18.33;;
9898;SDS011;4988;49.238;6.698;2024-01-30T07:36:54;45.20;;;19.70;;
9898;SDS011;4988;49.238;6.698;2024-01-30T07:39:19;47.10;;;19.33;;
9898;SDS011;4988;49.238;6.698;2024-01-30T07:41:44;39.90;;;17.23;;
9898;SDS011;4988;49.238;6.698;2024-01-30T07:44:10;43.40;;;20.00;;
9898;SDS011;4988;49.238;6.698;2024-01-30T07:46:35;48.97;;;19.07;;
9898;SDS011;4988;49.238;6.698;2024-01-30T07:49:00;45.10;;;20.47;;
9898;SDS011;4988;49.238;6.698;2024-01-30T07:51:26;47.40;;;20.70;;
9898;SDS011;4988;49.238;6.698;2024-01-30T07:53:53;55.73;;;23.17;;
9898;SDS011;4988;49.238;6.698;2024-01-30T07:56:18;51.57;;;21.63;;
9898;SDS011;4988;49.238;6.698;2024-01-30T07:58:44;52.40;;;21.03;;
9898;SDS011;4988;49.238;6.698;2024-01-30T08:01:09;50.77;;;22.93;;
9898;SDS011;4988;49.238;6.698;2024-01-30T08:03:35;57.67;;;26.17;;
9898;SDS011;4988;49.238;6.698;2024-01-30T08:06:01;52.57;;;22.77;;
9898;SDS011;4988;49.238;6.698;2024-01-30T08:08:28;55.73;;;23.40;;
9898;SDS011;4988;49.238;6.698;2024-01-30T08:10:53;51.27;;;22.43;;
9898;SDS011;4988;49.238;6.698;2024-01-30T08:13:18;52.10;;;21.13;;
9898;SDS011;4988;49.238;6.698;2024-01-30T08:15:44;54.70;;;22.30;;
9898;SDS011;4988;49.238;6.698;2024-01-30T08:18:09;56.43;;;23.13;;
9898;SDS011;4988;49.238;6.698;2024-01-30T08:20:34;53.33;;;23.00;;
9898;SDS011;4988;49.238;6.698;2024-01-30T08:23:00;51.57;;;22.23;;
9898;SDS011;4988;49.238;6.698;2024-01-30T08:25:25;50.13;;;21.00;;
9898;SDS011;4988;49.238;6.698;2024-01-30T08:27:51;48.13;;;21.63;;
9898;SDS011;4988;49.238;6.698;2024-01-30T08:30:16;49.63;;;22.63;;
9898;SDS011;4988;49.238;6.698;2024-01-30T08:32:42;55.83;;;24.67;;
9898;SDS011;4988;49.238;6.698;2024-01-30T08:35:07;64.17;;;26.13;;
9898;SDS011;4988;49.238;6.698;2024-01-30T08:37:33;64.03;;;25.60;;
9898;SDS011;4988;49.238;6.698;2024-01-30T08:39:59;79.60;;;30.07;;
9898;SDS011;4988;49.238;6.698;2024-01-30T08:42:24;59.00;;;24.70;;
9898;SDS011;4988;49.238;6.698;2024-01-30T08:44:51;61.37;;;26.63;;
9898;SDS011;4988;49.238;6.698;2024-01-30T08:47:18;65.83;;;28.87;;
9898;SDS011;4988;49.238;6.698;2024-01-30T08:49:43;65.70;;;29.03;;
9898;SDS011;4988;49.238;6.698;2024-01-30T08:52:09;55.97;;;25.73;;
9898;SDS011;4988;49.238;6.698;2024-01-30T08:54:35;58.20;;;26.87;;
9898;SDS011;4988;49.238;6.698;2024-01-30T08:57:00;60.80;;;26.93;;
9898;SDS011;4988;49.238;6.698;2024-01-30T08:59:26;54.17;;;24.80;;
9898;SDS011;4988;49.238;6.698;2024-01-30T09:01:51;54.90;;;24.67;;
9898;SDS011;4988;49.238;6.698;2024-01-30T09:04:20;65.17;;;26.43;;
9898;SDS011;4988;49.238;6.698;2024-01-30T09:06:45;64.67;;;25.57;;
9898;SDS011;4988;49.238;6.698;2024-01-30T09:09:10;54.67;;;24.67;;
9898;SDS011;4988;49.238;6.698;2024-01-30T09:11:36;56.80;;;25.37;;
9898;SDS011;4988;49.238;6.698;2024-01-30T09:14:01;54.80;;;25.57;;
9898;SDS011;4988;49.238;6.698;2024-01-30T09:16:26;61.73;;;27.97;;
9898;SDS011;4988;49.238;6.698;2024-01-30T09:18:52;54.80;;;26.93;;
9898;SDS011;4988;49.238;6.698;2024-01-30T09:21:17;60.63;;;27.30;;
9898;SDS011;4988;49.238;6.698;2024-01-30T09:23:42;60.53;;;26.67;;
9898;SDS011;4988;49.238;6.698;2024-01-30T09:26:08;62.73;;;26.73;;
9898;SDS011;4988;49.238;6.698;2024-01-30T09:28:34;57.73;;;28.27;;
9898;SDS011;4988;49.238;6.698;2024-01-30T09:30:59;58.20;;;26.70;;
9898;SDS011;4988;49.238;6.698;2024-01-30T09:33:25;63.90;;;29.33;;
9898;SDS011;4988;49.238;6.698;2024-01-30T09:35:50;72.20;;;29.53;;
9898;SDS011;4988;49.238;6.698;2024-01-30T09:38:16;65.83;;;27.90;;
9898;SDS011;4988;49.238;6.698;2024-01-30T09:40:41;61.07;;;26.07;;
9898;SDS011;4988;49.238;6.698;2024-01-30T09:43:07;56.60;;;25.53;;
9898;SDS011;4988;49.238;6.698;2024-01-30T09:45:32;57.73;;;25.53;;
9898;SDS011;4988;49.238;6.698;2024-01-30T09:48:00;62.27;;;27.13;;
9898;SDS011;4988;49.238;6.698;2024-01-30T09:50:25;59.90;;;26.50;;
9898;SDS011;4988;49.238;6.698;2024-01-30T09:52:52;63.03;;;27.83;;
9898;SDS011;4988;49.238;6.698;2024-01-30T09:55:20;61.73;;;26.67;;
9898;SDS011;4988;49.238;6.698;2024-01-30T09:57:45;63.67;;;26.63;;
9898;SDS011;4988;49.238;6.698;2024-01-30T10:00:11;59.23;;;26.63;;
9898;SDS011;4988;49.238;6.698;2024-01-30T10:02:38;75.33;;;29.07;;
9898;SDS011;4988;49.238;6.698;2024-01-30T10:05:04;70.87;;;27.87;;
9898;SDS011;4988;49.238;6.698;2024-01-30T10:07:30;56.77;;;24.90;;
9898;SDS011;4988;49.238;6.698;2024-01-30T10:09:55;65.10;;;26.30;;
9898;SDS011;4988;49.238;6.698;2024-01-30T10:12:25;52.93;;;22.70;;
9898;SDS011;4988;49.238;6.698;2024-01-30T10:14:51;55.50;;;23.10;;
9898;SDS011;4988;49.238;6.698;2024-01-30T10:17:16;47.97;;;21.77;;
9898;SDS011;4988;49.238;6.698;2024-01-30T10:19:42;51.47;;;23.80;;
9898;SDS011;4988;49.238;6.698;2024-01-30T10:22:07;53.03;;;23.13;;
9898;SDS011;4988;49.238;6.698;2024-01-30T10:24:34;63.97;;;25.57;;
9898;SDS011;4988;49.238;6.698;2024-01-30T10:26:59;61.53;;;24.90;;
9898;SDS011;4988;49.238;6.698;2024-01-30T10:29:25;54.30;;;24.10;;
9898;SDS011;4988;49.238;6.698;2024-01-30T10:31:58;58.23;;;25.40;;
9898;SDS011;4988;49.238;6.698;2024-01-30T10:34:27;50.63;;;24.07;;
9898;SDS011;4988;49.238;6.698;2024-01-30T10:36:59;56.70;;;24.83;;
9898;SDS011;4988;49.238;6.698;2024-01-30T10:39:29;54.07;;;25.10;;
9898;SDS011;4988;49.238;6.698;2024-01-30T10:41:56;45.50;;;23.47;;
9898;SDS011;4988;49.238;6.698;2024-01-30T10:44:28;52.50;;;24.40;;
9898;SDS011;4988;49.238;6.698;2024-01-30T10:47:00;50.10;;;22.93;;
9898;SDS011;4988;49.238;6.698;2024-01-30T10:49:31;59.30;;;24.57;;
9898;SDS011;4988;49.238;6.698;2024-01-30T10:51:57;49.07;;;23.90;;
9898;SDS011;4988;49.238;6.698;2024-01-30T10:54:23;61.90;;;27.97;;
9898;SDS011;4988;49.238;6.698;2024-01-30T10:56:50;63.13;;;28.97;;
9898;SDS011;4988;49.238;6.698;2024-01-30T10:59:16;65.90;;;28.27;;
9898;SDS011;4988;49.238;6.698;2024-01-30T11:01:42;64.53;;;29.17;;
9898;SDS011;4988;49.238;6.698;2024-01-30T11:04:07;61.13;;;29.93;;
9898;SDS011;4988;49.238;6.698;2024-01-30T11:06:33;62.83;;;29.33;;
9898;SDS011;4988;49.238;6.698;2024-01-30T11:09:09;61.40;;;27.53;;
9898;SDS011;4988;49.238;6.698;2024-01-30T11:14:25;47.33;;;23.73;;
9898;SDS011;4988;49.238;6.698;2024-01-30T11:16:57;47.73;;;23.90;;
9898;SDS011;4988;49.238;6.698;2024-01-30T11:19:24;43.17;;;21.90;;
9898;SDS011;4988;49.238;6.698;2024-01-30T11:21:55;55.70;;;23.80;;
9898;SDS011;4988;49.238;6.698;2024-01-30T11:24:22;44.17;;;22.70;;
9898;SDS011;4988;49.238;6.698;2024-01-30T11:26:49;42.33;;;20.60;;
9898;SDS011;4988;49.238;6.698;2024-01-30T11:29:20;38.63;;;20.43;;
9898;SDS011;4988;49.238;6.698;2024-01-30T11:31:53;38.37;;;18.83;;
9898;SDS011;4988;49.238;6.698;2024-01-30T11:34:22;42.97;;;19.50;;
9898;SDS011;4988;49.238;6.698;2024-01-30T11:36:51;37.17;;;18.73;;
9898;SDS011;4988;49.238;6.698;2024-01-30T11:39:23;37.47;;;18.73;;
9898;SDS011;4988;49.238;6.698;2024-01-30T11:41:53;39.97;;;18.07;;
9898;SDS011;4988;49.238;6.698;2024-01-30T11:44:19;35.67;;;18.90;;
9898;SDS011;4988;49.238;6.698;2024-01-30T11:46:46;34.27;;;17.90;;
9898;SDS011;4988;49.238;6.698;2024-01-30T11:49:13;38.77;;;17.37;;
9898;SDS011;4988;49.238;6.698;2024-01-30T11:51:38;38.20;;;18.50;;
9898;SDS011;4988;49.238;6.698;2024-01-30T11:54:04;29.73;;;15.37;;
9898;SDS011;4988;49.238;6.698;2024-01-30T11:56:29;33.40;;;17.80;;
9898;SDS011;4988;49.238;6.698;2024-01-30T11:58:54;30.67;;;16.13;;
9898;SDS011;4988;49.238;6.698;2024-01-30T12:01:20;34.37;;;17.00;;
9898;SDS011;4988;49.238;6.698;2024-01-30T12:03:49;33.87;;;17.07;;
9898;SDS011;4988;49.238;6.698;2024-01-30T12:06:15;35.37;;;17.13;;
9898;SDS011;4988;49.238;6.698;2024-01-30T12:08:41;32.27;;;17.27;;
9898;SDS011;4988;49.238;6.698;2024-01-30T12:11:06;27.37;;;14.83;;
9898;SDS011;4988;49.238;6.698;2024-01-30T12:13:32;27.20;;;14.20;;
9898;SDS011;4988;49.238;6.698;2024-01-30T12:15:58;24.47;;;14.00;;
9898;SDS011;4988;49.238;6.698;2024-01-30T12:18:23;25.30;;;12.50;;
9898;SDS011;4988;49.238;6.698;2024-01-30T12:20:58;17.93;;;10.37;;
9898;SDS011;4988;49.238;6.698;2024-01-30T12:23:24;18.23;;;10.73;;
9898;SDS011;4988;49.238;6.698;2024-01-30T12:25:51;21.27;;;10.53;;
9898;SDS011;4988;49.238;6.698;2024-01-30T12:28:17;16.57;;;9.30;;
9898;SDS011;4988;49.238;6.698;2024-01-30T12:30:42;16.00;;;9.20;;
9898;SDS011;4988;49.238;6.698;2024-01-30T12:33:08;19.57;;;8.73;;
9898;SDS011;4988;49.238;6.698;2024-01-30T12:35:35;17.83;;;9.10;;
9898;SDS011;4988;49.238;6.698;2024-01-30T12:38:00;20.63;;;9.80;;
9898;SDS011;4988;49.238;6.698;2024-01-30T12:40:26;16.13;;;8.37;;
9898;SDS011;4988;49.238;6.698;2024-01-30T12:42:51;16.67;;;9.63;;
9898;SDS011;4988;49.238;6.698;2024-01-30T12:45:17;22.17;;;10.27;;
9898;SDS011;4988;49.238;6.698;2024-01-30T12:47:47;18.63;;;8.67;;
9898;SDS011;4988;49.238;6.698;2024-01-30T12:50:13;16.33;;;8.60;;
9898;SDS011;4988;49.238;6.698;2024-01-30T12:52:40;16.03;;;8.37;;
9898;SDS011;4988;49.238;6.698;2024-01-30T12:55:06;20.30;;;9.60;;
9898;SDS011;4988;49.238;6.698;2024-01-30T12:57:31;16.33;;;8.53;;
9898;SDS011;4988;49.238;6.698;2024-01-30T12:59:57;16.60;;;8.27;;
9898;SDS011;4988;49.238;6.698;2024-01-30T13:02:23;18.20;;;9.10;;
9898;SDS011;4988;49.238;6.698;2024-01-30T13:04:48;13.97;;;8.00;;
9898;SDS011;4988;49.238;6.698;2024-01-30T13:07:14;16.70;;;8.40;;
9898;SDS011;4988;49.238;6.698;2024-01-30T13:09:39;13.50;;;8.03;;
9898;SDS011;4988;49.238;6.698;2024-01-30T13:12:05;15.03;;;8.00;;
9898;SDS011;4988;49.238;6.698;2024-01-30T13:14:30;15.37;;;8.23;;
9898;SDS011;4988;49.238;6.698;2024-01-30T13:16:56;17.17;;;7.57;;
9898;SDS011;4988;49.238;6.698;2024-01-30T13:19:21;14.30;;;7.60;;
9898;SDS011;4988;49.238;6.698;2024-01-30T13:21:46;16.87;;;7.53;;
9898;SDS011;4988;49.238;6.698;2024-01-30T13:24:12;14.43;;;7.53;;
9898;SDS011;4988;49.238;6.698;2024-01-30T13:26:38;14.77;;;7.63;;
9898;SDS011;4988;49.238;6.698;2024-01-30T13:29:04;15.57;;;7.23;;
9898;SDS011;4988;49.238;6.698;2024-01-30T13:31:29;15.47;;;7.53;;
9898;SDS011;4988;49.238;6.698;2024-01-30T13:33:55;27.10;;;10.97;;
9898;SDS011;4988;49.238;6.698;2024-01-30T13:36:21;15.53;;;8.30;;
9898;SDS011;4988;49.238;6.698;2024-01-30T13:38:47;17.50;;;8.07;;
9898;SDS011;4988;49.238;6.698;2024-01-30T13:41:12;14.43;;;8.33;;
9898;SDS011;4988;49.238;6.698;2024-01-30T13:43:37;12.23;;;7.47;;
9898;SDS011;4988;49.238;6.698;2024-01-30T13:46:03;16.47;;;8.93;;
9898;SDS011;4988;49.238;6.698;2024-01-30T13:48:28;15.83;;;8.10;;
9898;SDS011;4988;49.238;6.698;2024-01-30T13:50:54;20.87;;;9.10;;
9898;SDS011;4988;49.238;6.698;2024-01-30T13:53:20;14.67;;;8.23;;
9898;SDS011;4988;49.238;6.698;2024-01-30T13:55:46;14.93;;;8.43;;
9898;SDS011;4988;49.238;6.698;2024-01-30T13:58:12;17.23;;;8.10;;
9898;SDS011;4988;49.238;6.698;2024-01-30T14:00:37;14.20;;;8.13;;
9898;SDS011;4988;49.238;6.698;2024-01-30T14:03:02;15.03;;;8.03;;
9898;SDS011;4988;49.238;6.698;2024-01-30T14:05:28;17.73;;;9.57;;
9898;SDS011;4988;49.238;6.698;2024-01-30T14:07:54;14.47;;;7.90;;
9898;SDS011;4988;49.238;6.698;2024-01-30T14:10:19;20.23;;;9.57;;
9898;SDS011;4988;49.238;6.698;2024-01-30T14:12:45;15.70;;;8.70;;
9898;SDS011;4988;49.238;6.698;2024-01-30T14:15:13;16.27;;;9.17;;
9898;SDS011;4988;49.238;6.698;2024-01-30T14:17:39;19.67;;;9.47;;
9898;SDS011;4988;49.238;6.698;2024-01-30T14:20:05;14.77;;;9.80;;
9898;SDS011;4988;49.238;6.698;2024-01-30T14:22:31;18.57;;;9.50;;
9898;SDS011;4988;49.238;6.698;2024-01-30T14:24:58;17.40;;;9.00;;
9898;SDS011;4988;49.238;6.698;2024-01-30T14:27:24;18.63;;;9.10;;
9898;SDS011;4988;49.238;6.698;2024-01-30T14:29:49;19.77;;;10.50;;
9898;SDS011;4988;49.238;6.698;2024-01-30T14:32:14;21.17;;;9.50;;
9898;SDS011;4988;49.238;6.698;2024-01-30T14:34:40;20.07;;;9.80;;
9898;SDS011;4988;49.238;6.698;2024-01-30T14:37:05;18.90;;;9.93;;
9898;SDS011;4988;49.238;6.698;2024-01-30T14:39:31;20.03;;;10.87;;
9898;SDS011;4988;49.238;6.698;2024-01-30T14:41:56;16.93;;;8.43;;
9898;SDS011;4988;49.238;6.698;2024-01-30T14:44:22;15.13;;;8.70;;